Time;durP1;ratioP1;P1;durP2;ratioP2;P2;SDS_P1;SDS_P2;PMS_P1;PMS_P2;Temp;Humidity;BMP_temperature;BMP_pressure;BME280_temperature;BME280_humidity;BME280_pressure;Samples;Min_cycle;Max_cycle;Signal;HPM_P1;HPM_P2
2022/03/15 00:00:44;;;;;;;;;;;2.60;99.90;;;;;;5088640;28;19924;-68
2022/03/15 00:03:13;;;;;;;;;;;2.70;99.90;;;;;;5083527;28;20017;-68
2022/03/15 00:05:40;;;;;;;;;;;2.80;99.90;;;;;;5085468;28;19924;-68
2022/03/15 00:08:07;;;;;;;;;;;2.90;99.90;;;;;;5079187;28;19928;-68
2022/03/15 00:10:34;;;;;;;;;;;2.90;99.90;;;;;;5078125;28;19930;-68
2022/03/15 00:13:02;;;;;;;;;;;3.00;99.90;;;;;;5089888;28;20244;-68
2022/03/15 00:15:29;;;;;;;;;;;3.00;99.90;;;;;;5074668;28;20011;-68
2022/03/15 00:17:59;;;;;;;;;;;3.00;99.90;;;;;;5085258;28;20360;-68
2022/03/15 00:20:28;;;;;;;;;;;3.00;99.90;;;;;;5071110;28;20051;-68
2022/03/15 00:22:57;;;;;;;;;;;3.00;99.90;;;;;;5089801;28;20019;-68
2022/03/15 00:25:24;;;;;;;;;;;3.10;99.90;;;;;;5073859;28;19924;-68
2022/03/15 00:27:51;;;;;;;;;;;3.20;99.90;;;;;;5085687;28;19928;-68
2022/03/15 00:30:19;;;;;;;;;;;3.20;99.90;;;;;;5071007;28;20359;-68
2022/03/15 00:32:46;;;;;;;;;;;3.30;99.90;;;;;;5085679;28;20023;-68
2022/03/15 00:35:18;;;;;;;;;;;3.30;99.90;;;;;;5070840;28;19999;-68
2022/03/15 00:37:49;;;;;;;;;;;3.40;99.90;;;;;;5072640;28;20466;-68
2022/03/15 00:40:17;;;;;;;;;;;3.40;99.90;;;;;;5086709;28;19925;-68
2022/03/15 00:42:49;;;;;;;;;;;3.30;99.90;;;;;;5080056;28;20401;-68
2022/03/15 00:45:16;;;;;;;;;;;3.30;99.90;;;;;;5088898;28;19924;-68
2022/03/15 00:47:42;;;;;;;;;;;3.40;99.90;;;;;;5085203;28;19928;-68
2022/03/15 00:50:10;;;;;;;;;;;3.50;99.90;;;;;;5077699;28;19924;-68
2022/03/15 00:52:45;;;;;;;;;;;3.50;99.90;;;;;;5077202;28;20306;-68
2022/03/15 00:55:12;;;;;;;;;;;3.60;99.90;;;;;;5070264;28;20049;-68
2022/03/15 00:57:39;;;;;;;;;;;3.50;99.90;;;;;;5088390;28;20015;-68
2022/03/15 01:00:08;;;;;;;;;;;3.50;99.90;;;;;;5086009;28;20032;-68
2022/03/15 01:02:35;;;;;;;;;;;3.50;99.90;;;;;;5070430;28;19948;-68
2022/03/15 01:05:06;;;;;;;;;;;3.50;99.90;;;;;;5085092;28;19979;-68
2022/03/15 01:07:33;;;;;;;;;;;3.50;99.90;;;;;;5084654;28;19978;-68
2022/03/15 01:10:00;;;;;;;;;;;3.50;99.90;;;;;;5070598;28;20042;-68
2022/03/15 01:12:26;;;;;;;;;;;3.50;99.90;;;;;;5077641;28;20019;-68
2022/03/15 01:14:53;;;;;;;;;;;3.50;99.90;;;;;;5076648;28;20395;-68
2022/03/15 01:17:20;;;;;;;;;;;3.60;99.90;;;;;;5081790;28;20298;-68
2022/03/15 01:19:46;;;;;;;;;;;3.50;99.90;;;;;;5081386;28;19931;-68
2022/03/15 01:22:13;;;;;;;;;;;3.50;99.90;;;;;;5092886;28;19971;-68
2022/03/15 01:24:42;;;;;;;;;;;3.50;99.90;;;;;;5082690;28;20019;-68
2022/03/15 01:27:09;;;;;;;;;;;3.50;99.90;;;;;;5073705;28;19928;-68
2022/03/15 01:29:35;;;;;;;;;;;3.50;99.90;;;;;;5073853;28;19925;-68
2022/03/15 01:32:02;;;;;;;;;;;3.50;99.90;;;;;;5073858;28;19925;-69
2022/03/15 01:34:29;;;;;;;;;;;3.50;99.90;;;;;;5088339;28;19924;-68
2022/03/15 01:36:59;;;;;;;;;;;3.60;99.90;;;;;;5077617;28;20296;-68
2022/03/15 01:39:28;;;;;;;;;;;3.60;99.90;;;;;;5077226;28;19924;-68
2022/03/15 01:41:56;;;;;;;;;;;3.60;99.90;;;;;;5089311;28;19931;-69
2022/03/15 01:44:23;;;;;;;;;;;3.70;99.90;;;;;;5081859;28;19967;-68
2022/03/15 01:46:50;;;;;;;;;;;3.70;99.90;;;;;;5073011;28;20011;-68
2022/03/15 01:49:18;;;;;;;;;;;3.60;99.90;;;;;;5073713;28;19924;-68
2022/03/15 01:51:46;;;;;;;;;;;3.70;99.90;;;;;;5089760;28;20650;-68
2022/03/15 01:54:15;;;;;;;;;;;3.80;99.90;;;;;;5086097;28;20020;-68
2022/03/15 01:56:43;;;;;;;;;;;3.80;99.90;;;;;;5079983;28;20015;-68
2022/03/15 01:59:13;;;;;;;;;;;3.70;99.90;;;;;;5087005;28;20376;-68
2022/03/15 02:01:41;;;;;;;;;;;3.70;99.90;;;;;;5081650;28;20023;-68
2022/03/15 02:04:08;;;;;;;;;;;3.70;99.90;;;;;;5089925;28;19924;-68
2022/03/15 02:06:39;;;;;;;;;;;3.70;99.90;;;;;;5090710;28;20026;-68
2022/03/15 02:09:09;;;;;;;;;;;3.70;99.90;;;;;;5092663;28;19924;-68
2022/03/15 02:11:36;;;;;;;;;;;3.60;99.90;;;;;;5091934;28;19970;-68
2022/03/15 02:14:04;;;;;;;;;;;3.60;99.90;;;;;;5091919;28;20030;-68
2022/03/15 02:16:32;;;;;;;;;;;3.50;99.90;;;;;;5074539;28;19932;-68
2022/03/15 02:18:59;;;;;;;;;;;3.50;99.90;;;;;;5073367;28;19924;-68
2022/03/15 02:21:26;;;;;;;;;;;3.40;99.90;;;;;;5086036;28;20015;-68
2022/03/15 02:23:53;;;;;;;;;;;3.50;99.90;;;;;;5091533;28;20434;-68
2022/03/15 02:26:20;;;;;;;;;;;3.60;99.90;;;;;;5074438;28;20038;-68
2022/03/15 02:28:47;;;;;;;;;;;3.60;99.90;;;;;;5080692;28;19958;-68
2022/03/15 02:31:14;;;;;;;;;;;3.60;99.90;;;;;;5087299;28;19970;-68
2022/03/15 02:33:43;;;;;;;;;;;3.50;99.90;;;;;;5091957;28;19924;-68
2022/03/15 02:36:10;;;;;;;;;;;3.50;99.90;;;;;;5090415;28;20374;-68
2022/03/15 02:38:37;;;;;;;;;;;3.50;99.90;;;;;;5089969;28;19978;-68
2022/03/15 02:41:03;;;;;;;;;;;3.60;99.90;;;;;;5083196;28;19931;-68
2022/03/15 02:43:30;;;;;;;;;;;3.60;99.90;;;;;;5072659;28;19924;-68
2022/03/15 02:45:57;;;;;;;;;;;3.50;99.90;;;;;;5080455;28;19963;-68
2022/03/15 02:48:24;;;;;;;;;;;3.50;99.90;;;;;;5090964;28;19924;-68
2022/03/15 02:50:50;;;;;;;;;;;3.50;99.90;;;;;;5089795;28;20613;-68
2022/03/15 02:53:17;;;;;;;;;;;3.50;99.90;;;;;;5081874;28;20873;-68
2022/03/15 02:55:46;;;;;;;;;;;3.60;99.90;;;;;;5087413;28;19930;-68
2022/03/15 02:58:13;;;;;;;;;;;3.60;99.90;;;;;;5079611;28;20401;-68
2022/03/15 03:00:45;;;;;;;;;;;3.60;99.90;;;;;;5072394;28;20306;-68
2022/03/15 03:03:13;;;;;;;;;;;3.60;99.90;;;;;;5073109;28;19932;-68
2022/03/15 03:05:47;;;;;;;;;;;3.50;99.90;;;;;;5071027;28;20513;-68
2022/03/15 03:08:15;;;;;;;;;;;3.60;99.90;;;;;;5072553;28;19969;-68
2022/03/15 03:10:41;;;;;;;;;;;3.50;99.90;;;;;;5072549;28;19967;-68
2022/03/15 03:13:09;;;;;;;;;;;3.50;99.90;;;;;;5089998;28;19931;-68
2022/03/15 03:15:36;;;;;;;;;;;3.60;99.90;;;;;;5077207;28;19931;-67
2022/03/15 03:18:03;;;;;;;;;;;3.60;99.90;;;;;;5079325;28;20371;-68
2022/03/15 03:20:30;;;;;;;;;;;3.60;99.90;;;;;;5072260;28;19935;-68
2022/03/15 03:22:58;;;;;;;;;;;3.60;99.90;;;;;;5086064;28;19971;-68
2022/03/15 03:25:26;;;;;;;;;;;3.60;99.90;;;;;;5074439;28;20425;-68
2022/03/15 03:27:53;;;;;;;;;;;3.60;99.90;;;;;;5086142;28;19956;-68
2022/03/15 03:30:19;;;;;;;;;;;3.60;99.90;;;;;;5074019;28;19931;-68
2022/03/15 03:32:46;;;;;;;;;;;3.60;99.90;;;;;;5092379;28;19966;-69
2022/03/15 03:35:13;;;;;;;;;;;3.60;99.90;;;;;;5103644;28;20002;-68
2022/03/15 03:37:40;;;;;;;;;;;3.60;99.90;;;;;;5091353;28;19928;-68
2022/03/15 03:40:07;;;;;;;;;;;3.60;99.90;;;;;;5100289;28;19928;-68
2022/03/15 03:42:37;;;;;;;;;;;3.60;99.90;;;;;;5106436;28;19924;-68
2022/03/15 03:45:06;;;;;;;;;;;3.60;99.90;;;;;;5110516;28;20370;-68
2022/03/15 03:47:33;;;;;;;;;;;3.60;99.90;;;;;;5107007;28;19924;-68
2022/03/15 03:49:59;;;;;;;;;;;3.50;99.90;;;;;;5101704;28;19924;-67
2022/03/15 03:52:26;;;;;;;;;;;3.50;99.90;;;;;;5093367;28;20018;-67
2022/03/15 03:54:53;;;;;;;;;;;3.50;99.90;;;;;;5107152;28;20974;-67
2022/03/15 03:57:23;;;;;;;;;;;3.50;99.90;;;;;;5110056;28;19928;-67
2022/03/15 03:59:49;;;;;;;;;;;3.60;99.90;;;;;;5100027;28;20010;-67
2022/03/15 04:02:16;;;;;;;;;;;3.60;99.90;;;;;;5099306;28;19930;-67
2022/03/15 04:04:43;;;;;;;;;;;3.50;99.90;;;;;;5092013;28;19953;-67
2022/03/15 04:07:14;;;;;;;;;;;3.50;99.90;;;;;;5105353;28;19950;-67
2022/03/15 04:09:41;;;;;;;;;;;3.50;99.90;;;;;;5091992;28;20018;-67
2022/03/15 04:12:08;;;;;;;;;;;3.50;99.90;;;;;;5091875;28;20007;-67
2022/03/15 04:14:34;;;;;;;;;;;3.50;99.90;;;;;;5105643;28;19928;-67
2022/03/15 04:17:02;;;;;;;;;;;3.50;99.90;;;;;;5090988;28;19931;-67
2022/03/15 04:19:32;;;;;;;;;;;3.60;99.90;;;;;;5101065;28;19934;-67
2022/03/15 04:22:01;;;;;;;;;;;3.60;99.90;;;;;;5105032;28;19924;-67
2022/03/15 04:24:27;;;;;;;;;;;3.70;99.90;;;;;;5073197;28;19924;-67
2022/03/15 04:26:54;;;;;;;;;;;3.70;99.90;;;;;;5091113;28;20018;-67
2022/03/15 04:29:23;;;;;;;;;;;3.70;99.90;;;;;;5098488;28;19963;-67
2022/03/15 04:31:51;;;;;;;;;;;3.70;99.90;;;;;;5106103;28;19924;-67
2022/03/15 04:34:21;;;;;;;;;;;3.70;99.90;;;;;;5090996;28;19924;-68
2022/03/15 04:36:47;;;;;;;;;;;3.70;99.90;;;;;;5074724;28;20405;-67
2022/03/15 04:39:14;;;;;;;;;;;3.60;99.90;;;;;;5103398;28;20432;-67
2022/03/15 04:41:40;;;;;;;;;;;3.70;99.90;;;;;;5098903;28;19923;-67
2022/03/15 04:44:09;;;;;;;;;;;3.60;99.90;;;;;;5097197;28;20303;-68
2022/03/15 04:46:36;;;;;;;;;;;3.70;99.90;;;;;;5098162;28;20531;-67
2022/03/15 04:49:03;;;;;;;;;;;3.70;99.90;;;;;;5113970;28;19973;-67
2022/03/15 04:51:30;;;;;;;;;;;3.70;99.90;;;;;;5098827;28;20298;-67
2022/03/15 04:53:56;;;;;;;;;;;3.70;99.90;;;;;;5097412;28;19924;-67
2022/03/15 04:56:23;;;;;;;;;;;3.60;99.90;;;;;;5109030;28;19963;-67
2022/03/15 04:58:50;;;;;;;;;;;3.60;99.90;;;;;;5091921;28;20069;-68
2022/03/15 05:01:20;;;;;;;;;;;3.60;99.90;;;;;;5096393;28;19963;-67
2022/03/15 05:03:47;;;;;;;;;;;3.60;99.90;;;;;;5114136;28;19924;-67
2022/03/15 05:06:13;;;;;;;;;;;3.60;99.90;;;;;;5098344;28;19930;-67
2022/03/15 05:08:40;;;;;;;;;;;3.60;99.90;;;;;;5109530;28;19930;-67
2022/03/15 05:11:07;;;;;;;;;;;3.60;99.90;;;;;;5113742;28;19930;-67
2022/03/15 05:13:34;;;;;;;;;;;3.60;99.90;;;;;;5104080;28;20320;-67
2022/03/15 05:16:01;;;;;;;;;;;3.60;99.90;;;;;;5113863;28;19977;-67
2022/03/15 05:18:28;;;;;;;;;;;3.60;99.90;;;;;;5111669;28;19976;-67
2022/03/15 05:20:55;;;;;;;;;;;3.60;99.90;;;;;;5103261;28;19923;-67
2022/03/15 05:23:21;;;;;;;;;;;3.50;99.90;;;;;;5097805;28;20014;-67
2022/03/15 05:25:48;;;;;;;;;;;3.50;99.90;;;;;;5105750;28;19930;-67
2022/03/15 05:28:15;;;;;;;;;;;3.50;99.90;;;;;;5109580;28;20019;-67
2022/03/15 05:30:41;;;;;;;;;;;3.50;99.90;;;;;;5110988;28;19924;-67
2022/03/15 05:33:08;;;;;;;;;;;3.50;99.90;;;;;;5094343;28;19932;-68
2022/03/15 05:35:37;;;;;;;;;;;3.50;99.90;;;;;;5099763;28;19931;-68
2022/03/15 05:38:04;;;;;;;;;;;3.50;99.90;;;;;;5110923;28;20006;-68
2022/03/15 05:40:31;;;;;;;;;;;3.50;99.90;;;;;;5113052;28;19966;-68
2022/03/15 05:42:58;;;;;;;;;;;3.50;99.90;;;;;;5100003;28;20449;-68
2022/03/15 05:45:25;;;;;;;;;;;3.50;99.90;;;;;;5094996;28;20371;-68
2022/03/15 05:47:52;;;;;;;;;;;3.50;99.90;;;;;;5106342;28;19924;-68
2022/03/15 05:50:20;;;;;;;;;;;3.50;99.90;;;;;;5093548;28;19928;-68
2022/03/15 05:52:46;;;;;;;;;;;3.60;99.90;;;;;;5087940;28;19927;-68
2022/03/15 05:55:13;;;;;;;;;;;3.60;99.90;;;;;;5102519;28;19959;-67
2022/03/15 05:57:40;;;;;;;;;;;3.70;99.90;;;;;;5103279;28;19940;-68
2022/03/15 06:00:07;;;;;;;;;;;3.70;99.90;;;;;;5112422;28;19930;-68
2022/03/15 06:02:36;;;;;;;;;;;3.70;99.90;;;;;;5093933;28;19931;-68
2022/03/15 06:05:03;;;;;;;;;;;3.70;99.90;;;;;;5110808;28;19931;-69
2022/03/15 06:07:30;;;;;;;;;;;3.80;99.90;;;;;;5094842;28;19990;-69
2022/03/15 06:10:00;;;;;;;;;;;3.80;99.90;;;;;;5103259;28;19925;-67
2022/03/15 06:12:26;;;;;;;;;;;3.80;99.90;;;;;;5103029;28;20392;-68
2022/03/15 06:14:55;;;;;;;;;;;3.90;99.90;;;;;;5106787;28;19947;-68
2022/03/15 06:17:22;;;;;;;;;;;4.00;99.90;;;;;;5100850;28;20028;-68
2022/03/15 06:19:49;;;;;;;;;;;4.00;99.90;;;;;;5105762;28;20002;-68
2022/03/15 06:22:16;;;;;;;;;;;4.10;99.90;;;;;;5093140;28;19923;-68
2022/03/15 06:24:44;;;;;;;;;;;4.10;99.90;;;;;;5100962;28;19951;-68
2022/03/15 06:27:11;;;;;;;;;;;4.20;99.90;;;;;;5093751;28;20031;-68
2022/03/15 06:29:38;;;;;;;;;;;4.20;99.90;;;;;;5110998;28;19927;-68
2022/03/15 06:32:05;;;;;;;;;;;4.30;99.90;;;;;;5098304;28;19930;-68
2022/03/15 06:34:52;;;;;;;;;;;4.30;99.90;;;;;;5092961;28;20417;-67
2022/03/15 06:37:18;;;;;;;;;;;4.50;99.90;;;;;;5092803;28;20509;-67
2022/03/15 06:39:45;;;;;;;;;;;4.50;99.90;;;;;;5094480;28;19928;-67
2022/03/15 06:42:12;;;;;;;;;;;4.60;99.90;;;;;;5108463;28;19943;-67
2022/03/15 06:44:42;;;;;;;;;;;4.60;99.90;;;;;;5105791;28;19949;-67
2022/03/15 06:47:09;;;;;;;;;;;4.70;99.90;;;;;;5109305;28;20018;-67
2022/03/15 06:49:36;;;;;;;;;;;4.80;99.90;;;;;;5094531;28;20385;-67
2022/03/15 06:52:03;;;;;;;;;;;4.90;99.90;;;;;;5095521;28;19924;-67
2022/03/15 06:54:31;;;;;;;;;;;4.90;99.90;;;;;;5100219;28;19931;-69
2022/03/15 06:56:58;;;;;;;;;;;4.90;99.90;;;;;;5091977;28;19967;-67
2022/03/15 06:59:25;;;;;;;;;;;5.00;99.90;;;;;;5111777;28;19966;-67
2022/03/15 07:01:59;;;;;;;;;;;5.10;99.90;;;;;;5100932;28;20256;-67
2022/03/15 07:04:27;;;;;;;;;;;5.10;99.90;;;;;;5106098;28;20015;-67
2022/03/15 07:06:53;;;;;;;;;;;5.20;99.90;;;;;;5092508;28;19932;-68
2022/03/15 07:09:20;;;;;;;;;;;5.20;99.90;;;;;;5101768;28;20026;-68
2022/03/15 07:11:47;;;;;;;;;;;5.30;99.90;;;;;;5110249;28;19930;-67
2022/03/15 07:14:14;;;;;;;;;;;5.40;99.90;;;;;;5092864;28;20006;-68
2022/03/15 07:16:40;;;;;;;;;;;5.50;99.90;;;;;;5080151;28;19962;-67
2022/03/15 07:19:09;;;;;;;;;;;5.50;99.90;;;;;;5109083;28;20372;-67
2022/03/15 07:21:37;;;;;;;;;;;5.60;99.90;;;;;;5111321;28;20034;-68
2022/03/15 07:24:03;;;;;;;;;;;5.70;99.90;;;;;;5100784;28;19974;-68
2022/03/15 07:26:32;;;;;;;;;;;5.80;99.90;;;;;;5102328;28;19924;-67
2022/03/15 07:28:59;;;;;;;;;;;5.80;99.90;;;;;;5076827;28;20418;-68
2022/03/15 07:31:25;;;;;;;;;;;5.90;99.90;;;;;;5110963;28;19938;-68
2022/03/15 07:33:53;;;;;;;;;;;6.00;99.90;;;;;;5101270;28;20378;-68
2022/03/15 07:36:21;;;;;;;;;;;6.10;99.90;;;;;;5092325;28;20010;-67
2022/03/15 07:38:48;;;;;;;;;;;6.10;99.90;;;;;;5090795;28;20019;-68
2022/03/15 07:41:16;;;;;;;;;;;6.10;99.90;;;;;;5091899;28;20010;-67
2022/03/15 07:43:43;;;;;;;;;;;6.20;99.90;;;;;;5103687;28;20390;-67
2022/03/15 07:46:10;;;;;;;;;;;6.30;99.90;;;;;;5101168;28;20019;-68
2022/03/15 07:48:40;;;;;;;;;;;6.50;99.90;;;;;;5096111;28;19959;-69
2022/03/15 07:51:06;;;;;;;;;;;6.50;99.90;;;;;;5085024;28;20015;-68
2022/03/15 07:53:33;;;;;;;;;;;6.60;99.90;;;;;;5086696;28;20010;-68
2022/03/15 07:56:00;;;;;;;;;;;6.70;99.90;;;;;;5094240;28;19978;-68
2022/03/15 07:58:27;;;;;;;;;;;6.70;99.90;;;;;;5105440;28;19924;-68
2022/03/15 08:00:56;;;;;;;;;;;6.80;99.90;;;;;;5100868;28;20022;-68
2022/03/15 08:03:24;;;;;;;;;;;6.80;99.90;;;;;;5110119;28;20006;-68
2022/03/15 08:05:51;;;;;;;;;;;6.80;99.90;;;;;;5107349;28;19928;-68
2022/03/15 08:08:18;;;;;;;;;;;6.80;99.90;;;;;;5109624;28;19930;-68
2022/03/15 08:10:47;;;;;;;;;;;6.90;99.90;;;;;;5100431;28;20026;-68
2022/03/15 08:13:14;;;;;;;;;;;7.10;99.90;;;;;;5097113;28;19981;-68
2022/03/15 08:15:41;;;;;;;;;;;7.20;99.90;;;;;;5099393;28;20014;-68
2022/03/15 08:18:08;;;;;;;;;;;7.40;99.90;;;;;;5105787;28;20007;-68
2022/03/15 08:20:36;;;;;;;;;;;7.50;99.90;;;;;;5091776;28;19931;-68
2022/03/15 08:23:03;;;;;;;;;;;7.50;99.90;;;;;;5090772;28;19932;-67
2022/03/15 08:25:30;;;;;;;;;;;7.60;99.90;;;;;;5098820;28;19923;-66
2022/03/15 08:27:57;;;;;;;;;;;7.50;99.90;;;;;;5097828;28;19928;-67
2022/03/15 08:30:24;;;;;;;;;;;7.60;99.90;;;;;;5091560;28;19963;-67
2022/03/15 08:32:55;;;;;;;;;;;7.70;99.90;;;;;;5097669;28;20279;-67
2022/03/15 08:35:22;;;;;;;;;;;7.80;99.90;;;;;;5104419;28;20468;-67
2022/03/15 08:37:50;;;;;;;;;;;7.80;99.90;;;;;;5106229;28;19958;-67
2022/03/15 08:40:17;;;;;;;;;;;7.70;99.90;;;;;;5093805;28;19924;-68
2022/03/15 08:42:44;;;;;;;;;;;7.80;99.90;;;;;;5109815;28;19953;-67
2022/03/15 08:45:11;;;;;;;;;;;7.90;99.90;;;;;;5091079;28;19928;-67
2022/03/15 08:47:38;;;;;;;;;;;7.90;99.90;;;;;;5097427;28;19969;-67
2022/03/15 08:50:05;;;;;;;;;;;8.00;99.90;;;;;;5109880;28;19966;-67
2022/03/15 08:52:35;;;;;;;;;;;8.00;99.90;;;;;;5102531;28;19930;-68
2022/03/15 08:55:02;;;;;;;;;;;8.20;99.90;;;;;;5091725;28;20357;-67
2022/03/15 08:57:30;;;;;;;;;;;8.20;99.90;;;;;;5090660;28;19924;-67
2022/03/15 08:59:58;;;;;;;;;;;8.40;99.90;;;;;;5101212;28;20023;-68
2022/03/15 09:02:24;;;;;;;;;;;8.50;99.90;;;;;;5100454;28;19967;-68
2022/03/15 09:04:51;;;;;;;;;;;8.60;99.90;;;;;;5086855;28;19963;-68
2022/03/15 09:07:19;;;;;;;;;;;8.60;99.90;;;;;;5097678;28;19923;-67
2022/03/15 09:09:45;;;;;;;;;;;8.50;99.90;;;;;;5098318;28;19931;-67
2022/03/15 09:12:12;;;;;;;;;;;8.40;99.90;;;;;;5099426;28;19934;-67
2022/03/15 09:14:39;;;;;;;;;;;8.40;99.90;;;;;;5090496;28;20367;-67
2022/03/15 09:17:06;;;;;;;;;;;8.50;99.90;;;;;;5090299;28;19997;-67
2022/03/15 09:19:36;;;;;;;;;;;8.60;99.90;;;;;;5109328;28;19930;-68
2022/03/15 09:22:03;;;;;;;;;;;8.70;99.90;;;;;;5100409;28;20011;-68
2022/03/15 09:24:32;;;;;;;;;;;8.70;99.90;;;;;;5104350;28;19989;-68
2022/03/15 09:27:01;;;;;;;;;;;8.80;99.90;;;;;;5097889;28;19924;-68
2022/03/15 09:29:34;;;;;;;;;;;8.70;99.90;;;;;;5106069;28;20374;-67
2022/03/15 09:32:04;;;;;;;;;;;8.90;99.90;;;;;;5097262;28;20432;-68
2022/03/15 09:34:31;;;;;;;;;;;9.10;99.90;;;;;;5099664;28;19928;-68
2022/03/15 09:36:59;;;;;;;;;;;9.10;99.90;;;;;;5098818;28;19924;-68
2022/03/15 09:39:26;;;;;;;;;;;9.30;99.90;;;;;;5113553;28;20271;-68
2022/03/15 09:41:53;;;;;;;;;;;9.50;99.90;;;;;;5107352;28;19950;-68
2022/03/15 09:44:25;;;;;;;;;;;9.60;99.90;;;;;;5099631;28;19995;-68
2022/03/15 09:46:53;;;;;;;;;;;9.70;99.90;;;;;;5102769;28;19928;-68
2022/03/15 09:49:25;;;;;;;;;;;9.70;99.90;;;;;;5107172;28;19969;-68
2022/03/15 09:51:56;;;;;;;;;;;9.60;99.90;;;;;;5102321;28;19931;-68
2022/03/15 09:54:25;;;;;;;;;;;9.50;99.90;;;;;;5100076;28;20016;-68
2022/03/15 09:56:52;;;;;;;;;;;9.40;99.90;;;;;;5101973;28;19940;-68
2022/03/15 09:59:21;;;;;;;;;;;9.30;99.90;;;;;;5083451;28;19924;-67
2022/03/15 10:01:52;;;;;;;;;;;9.30;99.90;;;;;;5094637;28;20443;-68
2022/03/15 10:04:20;;;;;;;;;;;9.30;99.90;;;;;;5093358;28;19928;-68
2022/03/15 10:06:47;;;;;;;;;;;9.10;99.90;;;;;;5099354;28;19984;-68
2022/03/15 10:09:14;;;;;;;;;;;9.10;99.90;;;;;;5102558;28;19982;-68
2022/03/15 10:11:41;;;;;;;;;;;9.10;99.90;;;;;;5107704;28;19924;-68
2022/03/15 10:14:09;;;;;;;;;;;9.10;99.90;;;;;;5093043;28;20012;-68
2022/03/15 10:16:40;;;;;;;;;;;8.90;99.90;;;;;;5093067;28;19928;-68
2022/03/15 10:19:11;;;;;;;;;;;8.70;99.90;;;;;;5092537;28;19970;-67
2022/03/15 10:21:55;;;;;;;;;;;8.60;99.90;;;;;;5107346;28;20022;-68
2022/03/15 10:24:29;;;;;;;;;;;8.40;99.90;;;;;;5103381;28;19971;-68
2022/03/15 10:26:57;;;;;;;;;;;8.10;99.90;;;;;;5100290;28;19931;-68
2022/03/15 10:29:25;;;;;;;;;;;7.90;99.90;;;;;;5097829;28;19928;-67
2022/03/15 10:31:52;;;;;;;;;;;7.70;99.90;;;;;;5076846;28;19924;-67
2022/03/15 10:34:21;;;;;;;;;;;7.60;99.90;;;;;;5075342;28;19955;-67
2022/03/15 10:36:53;;;;;;;;;;;7.50;99.90;;;;;;5107928;28;19963;-67
2022/03/15 10:39:20;;;;;;;;;;;7.40;99.90;;;;;;5102011;28;20010;-67
2022/03/15 10:41:51;;;;;;;;;;;7.30;99.90;;;;;;5112227;28;19923;-67
2022/03/15 10:44:38;;;;;;;;;;;7.30;99.90;;;;;;5107954;28;20214;-67
2022/03/15 10:47:05;;;;;;;;;;;7.40;99.90;;;;;;5100690;28;20278;-68
2022/03/15 10:49:44;;;;;;;;;;;7.40;99.90;;;;;;5093104;28;19967;-68
2022/03/15 10:52:10;;;;;;;;;;;7.50;99.90;;;;;;5090608;28;20006;-68
2022/03/15 10:54:40;;;;;;;;;;;7.40;99.90;;;;;;5111792;28;19923;-68
2022/03/15 10:57:11;;;;;;;;;;;7.40;99.90;;;;;;5094392;28;19959;-68
2022/03/15 10:59:41;;;;;;;;;;;7.40;99.90;;;;;;5097761;28;19998;-68
2022/03/15 11:02:12;;;;;;;;;;;7.20;99.90;;;;;;5102385;28;19931;-69
2022/03/15 11:04:46;;;;;;;;;;;7.00;99.90;;;;;;5106713;28;19924;-69
2022/03/15 11:07:13;;;;;;;;;;;6.90;99.90;;;;;;5091862;28;19924;-68
2022/03/15 11:09:40;;;;;;;;;;;6.80;99.90;;;;;;5092630;28;20003;-68
2022/03/15 11:12:09;;;;;;;;;;;6.80;99.90;;;;;;5110771;28;20015;-69
2022/03/15 11:14:42;;;;;;;;;;;6.70;99.90;;;;;;5095389;28;19927;-68
2022/03/15 11:17:08;;;;;;;;;;;6.70;99.90;;;;;;5104808;28;20490;-68
2022/03/15 11:19:40;;;;;;;;;;;6.70;99.90;;;;;;5100054;28;20014;-68
2022/03/15 11:22:08;;;;;;;;;;;6.70;99.90;;;;;;5110996;28;20022;-68
2022/03/15 11:24:38;;;;;;;;;;;6.60;99.90;;;;;;5104932;28;19974;-68
2022/03/15 11:27:07;;;;;;;;;;;6.50;99.90;;;;;;5091929;28;20408;-68
2022/03/15 11:29:37;;;;;;;;;;;6.50;99.90;;;;;;5111398;28;19924;-67
2022/03/15 11:32:06;;;;;;;;;;;6.50;99.90;;;;;;5108977;28;19924;-67
2022/03/15 11:34:34;;;;;;;;;;;6.50;99.90;;;;;;5091774;28;20438;-68
2022/03/15 11:37:01;;;;;;;;;;;6.40;99.90;;;;;;5097195;28;20458;-68
2022/03/15 11:39:29;;;;;;;;;;;6.50;99.90;;;;;;5083377;28;20010;-68
2022/03/15 11:41:59;;;;;;;;;;;6.60;99.90;;;;;;5081901;28;20455;-68
2022/03/15 11:44:35;;;;;;;;;;;6.70;99.90;;;;;;5104971;28;20369;-68
2022/03/15 11:47:11;;;;;;;;;;;6.60;99.90;;;;;;5108341;28;20018;-72
2022/03/15 11:49:43;;;;;;;;;;;6.60;99.90;;;;;;5105176;28;20049;-68
2022/03/15 11:52:29;;;;;;;;;;;6.60;99.90;;;;;;5103242;28;19988;-68
2022/03/15 11:55:16;;;;;;;;;;;6.70;99.90;;;;;;5108736;28;19981;-69
2022/03/15 11:57:49;;;;;;;;;;;6.70;99.90;;;;;;5068469;28;19924;-69
2022/03/15 12:00:31;;;;;;;;;;;6.70;99.90;;;;;;5092306;28;19928;-68
2022/03/15 12:03:02;;;;;;;;;;;6.60;99.90;;;;;;5105745;28;19932;-69
2022/03/15 12:05:30;;;;;;;;;;;6.60;99.90;;;;;;5098404;28;19971;-69
2022/03/15 12:08:12;;;;;;;;;;;6.70;99.90;;;;;;5098979;28;19928;-68
2022/03/15 12:10:44;;;;;;;;;;;6.70;99.90;;;;;;5097708;28;19971;-68
2022/03/15 12:13:45;;;;;;;;;;;6.70;99.90;;;;;;5089426;28;20633;-68
2022/03/15 12:16:15;;;;;;;;;;;6.80;99.90;;;;;;5090763;28;20011;-67
2022/03/15 12:18:48;;;;;;;;;;;6.90;99.90;;;;;;5092933;28;19924;-68
2022/03/15 12:21:15;;;;;;;;;;;6.90;99.90;;;;;;5099550;28;20013;-68
2022/03/15 12:23:47;;;;;;;;;;;6.80;99.90;;;;;;5110484;28;19924;-68
2022/03/15 12:26:30;;;;;;;;;;;6.50;99.90;;;;;;5110433;28;19959;-68
2022/03/15 12:29:04;;;;;;;;;;;6.40;99.90;;;;;;5091112;28;19978;-68
2022/03/15 12:31:51;;;;;;;;;;;6.20;99.90;;;;;;5091150;28;20299;-68
2022/03/15 12:34:18;;;;;;;;;;;6.20;99.90;;;;;;5103313;28;19940;-68
2022/03/15 12:36:45;;;;;;;;;;;6.30;99.90;;;;;;5090899;28;19924;-68
2022/03/15 12:39:12;;;;;;;;;;;6.30;99.90;;;;;;5091242;28;19928;-69
2022/03/15 12:41:42;;;;;;;;;;;6.40;99.90;;;;;;5105074;28;19930;-67
2022/03/15 12:44:10;;;;;;;;;;;6.40;99.90;;;;;;5105663;28;20006;-69
2022/03/15 12:46:40;;;;;;;;;;;6.40;99.90;;;;;;5090897;28;19928;-69
2022/03/15 12:49:12;;;;;;;;;;;6.40;99.90;;;;;;5073519;28;19924;-69
2022/03/15 12:51:42;;;;;;;;;;;6.30;99.90;;;;;;5097499;28;19924;-68
2022/03/15 12:54:12;;;;;;;;;;;6.40;99.90;;;;;;5081961;28;19934;-68
2022/03/15 12:56:48;;;;;;;;;;;6.30;99.90;;;;;;5079354;28;19924;-68
2022/03/15 12:59:21;;;;;;;;;;;6.20;99.90;;;;;;5100421;28;19977;-68
2022/03/15 13:01:48;;;;;;;;;;;6.30;99.90;;;;;;5088759;28;19960;-68
2022/03/15 13:04:26;;;;;;;;;;;6.20;99.90;;;;;;5091474;28;19924;-68
2022/03/15 13:06:53;;;;;;;;;;;6.20;99.90;;;;;;5095399;28;19974;-68
2022/03/15 13:09:26;;;;;;;;;;;6.20;99.90;;;;;;5113224;28;19962;-69
2022/03/15 13:11:55;;;;;;;;;;;6.10;99.90;;;;;;5113107;28;20003;-69
2022/03/15 13:14:33;;;;;;;;;;;6.20;99.90;;;;;;5094499;28;20019;-69
2022/03/15 13:17:00;;;;;;;;;;;6.20;99.90;;;;;;5100119;28;20069;-69
2022/03/15 13:19:29;;;;;;;;;;;6.20;99.90;;;;;;5104670;28;20550;-70
2022/03/15 13:21:59;;;;;;;;;;;6.10;99.90;;;;;;5107090;28;20354;-71
2022/03/15 13:24:35;;;;;;;;;;;6.10;99.90;;;;;;5111198;28;19934;-71
2022/03/15 13:27:03;;;;;;;;;;;6.10;99.90;;;;;;5080130;28;20002;-72
2022/03/15 13:29:31;;;;;;;;;;;6.10;99.90;;;;;;5105277;28;20006;-72
2022/03/15 13:31:59;;;;;;;;;;;6.00;99.90;;;;;;5112694;28;19924;-72
2022/03/15 13:34:28;;;;;;;;;;;6.00;99.90;;;;;;5094302;28;20511;-73
2022/03/15 13:37:04;;;;;;;;;;;6.00;99.90;;;;;;5093716;28;19924;-73
2022/03/15 13:39:31;;;;;;;;;;;6.00;99.90;;;;;;5094510;28;20362;-73
2022/03/15 13:42:00;;;;;;;;;;;5.90;99.90;;;;;;5108566;28;20537;-74
2022/03/15 13:44:29;;;;;;;;;;;5.90;99.90;;;;;;5100967;28;19923;-73
2022/03/15 13:47:11;;;;;;;;;;;5.90;99.90;;;;;;5092423;28;19935;-72
2022/03/15 13:49:38;;;;;;;;;;;5.80;99.90;;;;;;5094575;28;20554;-73
2022/03/15 13:52:14;;;;;;;;;;;5.80;99.90;;;;;;5110650;28;20386;-73
2022/03/15 13:54:48;;;;;;;;;;;5.80;99.90;;;;;;5114525;28;19923;-73
2022/03/15 13:57:25;;;;;;;;;;;5.90;99.90;;;;;;5111994;28;19924;-73
2022/03/15 14:00:17;;;;;;;;;;;5.90;99.90;;;;;;5094001;28;19970;-73
2022/03/15 14:02:46;;;;;;;;;;;5.90;99.90;;;;;;5103632;28;19924;-74
2022/03/15 14:05:15;;;;;;;;;;;6.00;99.90;;;;;;5095710;28;20328;-74
2022/03/15 14:07:47;;;;;;;;;;;6.00;99.90;;;;;;5095915;28;20030;-75
2022/03/15 14:10:15;;;;;;;;;;;6.00;99.90;;;;;;5105660;28;19928;-74
2022/03/15 14:12:48;;;;;;;;;;;6.00;99.90;;;;;;5094939;28;19924;-74
2022/03/15 14:15:19;;;;;;;;;;;6.00;99.90;;;;;;5105834;28;20402;-74
2022/03/15 14:17:48;;;;;;;;;;;6.00;99.90;;;;;;5095304;28;19927;-73
2022/03/15 14:20:26;;;;;;;;;;;6.10;99.90;;;;;;5102105;28;20015;-73
2022/03/15 14:22:53;;;;;;;;;;;6.10;99.90;;;;;;5099813;28;19924;-72
2022/03/15 14:25:24;;;;;;;;;;;6.00;99.90;;;;;;5101976;28;19930;-71
2022/03/15 14:28:03;;;;;;;;;;;6.00;99.90;;;;;;5092582;28;19974;-72
2022/03/15 14:30:31;;;;;;;;;;;6.10;99.90;;;;;;5105867;28;19924;-72
2022/03/15 14:32:58;;;;;;;;;;;6.10;99.90;;;;;;5110317;28;20362;-72
2022/03/15 14:35:30;;;;;;;;;;;6.10;99.90;;;;;;5100246;28;20434;-71
2022/03/15 14:38:03;;;;;;;;;;;6.10;99.90;;;;;;5101076;28;20016;-71
2022/03/15 14:40:59;;;;;;;;;;;6.00;99.90;;;;;;5093556;28;19966;-71